Time;durP1;ratioP1;P1;durP2;ratioP2;P2;SDS_P1;SDS_P2;PMS_P1;PMS_P2;Temp;Humidity;BMP_temperature;BMP_pressure;BME280_temperature;BME280_humidity;BME280_pressure;Samples;Min_cycle;Max_cycle;Signal;HPM_P1;HPM_P2
2021/01/07 00:00:48;;;;;;;20.15;10.85;;;;;;;-0.56;91.01172;94764.97;;;;
2021/01/07 00:01:48;;;;;;;20.15;10.85;;;;;;;-0.56;91.01172;94764.97;;;;
2021/01/07 00:02:49;;;;;;;20.15;10.85;;;;;;;-0.56;91.01172;94764.97;;;;
2021/01/07 00:03:49;;;;;;;20.15;10.85;;;;;;;-0.56;91.01172;94764.97;;;;
2021/01/07 00:04:50;;;;;;;20.15;10.85;;;;;;;-0.56;91.01172;94764.97;;;;
2021/01/07 00:05:50;;;;;;;20.15;10.85;;;;;;;-0.56;91.01172;94764.97;;;;
2021/01/07 00:06:51;;;;;;;20.15;10.85;;;;;;;-0.56;91.01172;94764.97;;;;
2021/01/07 00:07:52;;;;;;;20.15;10.85;;;;;;;-0.56;91.01172;94764.97;;;;
2021/01/07 00:08:52;;;;;;;20.8;10.55;;;;;;;-0.5;91.12988;94771.69;;;;
2021/01/07 00:09:53;;;;;;;20.8;10.55;;;;;;;-0.5;91.12988;94771.69;;;;
2021/01/07 00:10:53;;;;;;;20.8;10.55;;;;;;;-0.5;91.12988;94771.69;;;;
2021/01/07 00:11:56;;;;;;;20.8;10.55;;;;;;;-0.5;91.12988;94771.69;;;;
2021/01/07 00:12:56;;;;;;;20.8;10.55;;;;;;;-0.5;91.12988;94771.69;;;;
2021/01/07 00:13:57;;;;;;;20.8;10.55;;;;;;;-0.5;91.12988;94771.69;;;;
2021/01/07 00:14:57;;;;;;;20.8;10.55;;;;;;;-0.5;91.12988;94771.69;;;;
2021/01/07 00:15:58;;;;;;;20.8;10.55;;;;;;;-0.5;91.12988;94771.69;;;;
2021/01/07 00:16:59;;;;;;;20.8;10.55;;;;;;;-0.5;91.12988;94771.69;;;;
2021/01/07 00:17:59;;;;;;;20.8;10.55;;;;;;;-0.5;91.12988;94771.69;;;;
2021/01/07 00:18:59;;;;;;;19.35;10;;;;;;;-0.46;91.11719;94787.56;;;;
2021/01/07 00:20:00;;;;;;;19.35;10;;;;;;;-0.46;91.11719;94787.56;;;;
2021/01/07 00:21:01;;;;;;;19.35;10;;;;;;;-0.46;91.11719;94787.56;;;;
2021/01/07 00:22:02;;;;;;;19.35;10;;;;;;;-0.46;91.11719;94787.56;;;;
2021/01/07 00:23:03;;;;;;;19.35;10;;;;;;;-0.46;91.11719;94787.56;;;;
2021/01/07 00:24:03;;;;;;;19.35;10;;;;;;;-0.46;91.11719;94787.56;;;;
2021/01/07 00:25:04;;;;;;;19.35;10;;;;;;;-0.46;91.11719;94787.56;;;;
2021/01/07 00:26:07;;;;;;;19.35;10;;;;;;;-0.46;91.11719;94787.56;;;;
2021/01/07 00:27:07;;;;;;;19.35;10;;;;;;;-0.46;91.11719;94787.56;;;;
2021/01/07 00:28:08;;;;;;;19.35;10;;;;;;;-0.46;91.11719;94787.56;;;;
2021/01/07 00:29:08;;;;;;;19.35;10;;;;;;;-0.46;91.11719;94787.56;;;;
2021/01/07 00:30:09;;;;;;;19.2;10.3;;;;;;;-0.49;91.18164;94785.36;;;;
2021/01/07 00:31:10;;;;;;;19.2;10.3;;;;;;;-0.49;91.18164;94785.36;;;;
2021/01/07 00:32:11;;;;;;;19.2;10.3;;;;;;;-0.49;91.18164;94785.36;;;;
2021/01/07 00:33:11;;;;;;;19.2;10.3;;;;;;;-0.49;91.18164;94785.36;;;;
2021/01/07 00:34:13;;;;;;;19.2;10.3;;;;;;;-0.49;91.18164;94785.36;;;;
2021/01/07 00:35:14;;;;;;;19.2;10.3;;;;;;;-0.49;91.18164;94785.36;;;;
2021/01/07 00:36:14;;;;;;;19.2;10.3;;;;;;;-0.49;91.18164;94785.36;;;;
2021/01/07 00:37:16;;;;;;;19.2;10.3;;;;;;;-0.49;91.18164;94785.36;;;;
2021/01/07 00:38:17;;;;;;;19.2;10.3;;;;;;;-0.49;91.18164;94785.36;;;;
2021/01/07 00:39:17;;;;;;;19.2;10.3;;;;;;;-0.49;91.18164;94785.36;;;;
2021/01/07 00:40:18;;;;;;;20.6;11.45;;;;;;;-0.49;91.34766;94778.74;;;;
2021/01/07 00:41:18;;;;;;;20.6;11.45;;;;;;;-0.49;91.34766;94778.74;;;;
2021/01/07 00:42:21;;;;;;;20.6;11.45;;;;;;;-0.49;91.34766;94778.74;;;;
2021/01/07 00:43:22;;;;;;;20.6;11.45;;;;;;;-0.49;91.34766;94778.74;;;;
2021/01/07 00:44:22;;;;;;;20.6;11.45;;;;;;;-0.49;91.34766;94778.74;;;;
2021/01/07 00:45:23;;;;;;;20.6;11.45;;;;;;;-0.49;91.34766;94778.74;;;;
2021/01/07 00:46:24;;;;;;;20.6;11.45;;;;;;;-0.49;91.34766;94778.74;;;;
2021/01/07 00:47:24;;;;;;;20.6;11.45;;;;;;;-0.49;91.34766;94778.74;;;;
2021/01/07 00:48:25;;;;;;;20.6;11.45;;;;;;;-0.49;91.34766;94778.74;;;;
2021/01/07 00:49:25;;;;;;;20.6;11.45;;;;;;;-0.49;91.34766;94778.74;;;;
2021/01/07 00:50:26;;;;;;;20.6;11.45;;;;;;;-0.49;91.34766;94778.74;;;;
2021/01/07 00:51:27;;;;;;;19.75;10.75;;;;;;;-0.39;91.59863;94779.69;;;;
2021/01/07 00:52:30;;;;;;;19.75;10.75;;;;;;;-0.39;91.59863;94779.69;;;;
2021/01/07 00:53:31;;;;;;;19.75;10.75;;;;;;;-0.39;91.59863;94779.69;;;;
2021/01/07 00:54:31;;;;;;;19.75;10.75;;;;;;;-0.39;91.59863;94779.69;;;;
2021/01/07 00:55:32;;;;;;;19.75;10.75;;;;;;;-0.39;91.59863;94779.69;;;;
2021/01/07 00:56:32;;;;;;;19.75;10.75;;;;;;;-0.39;91.59863;94779.69;;;;
2021/01/07 00:57:35;;;;;;;19.75;10.75;;;;;;;-0.39;91.59863;94779.69;;;;
2021/01/07 00:58:36;;;;;;;19.75;10.75;;;;;;;-0.39;91.59863;94779.69;;;;
2021/01/07 00:59:36;;;;;;;19.75;10.75;;;;;;;-0.39;91.59863;94779.69;;;;
2021/01/07 01:00:37;;;;;;;19.75;10.75;;;;;;;-0.39;91.59863;94779.69;;;;
2021/01/07 01:01:37;;;;;;;20.05;10.6;;;;;;;-0.3;91.43164;94791.37;;;;
2021/01/07 01:02:42;;;;;;;20.05;10.6;;;;;;;-0.3;91.43164;94791.37;;;;
2021/01/07 01:03:43;;;;;;;20.05;10.6;;;;;;;-0.3;91.43164;94791.37;;;;
2021/01/07 01:04:43;;;;;;;20.05;10.6;;;;;;;-0.3;91.43164;94791.37;;;;
2021/01/07 01:05:44;;;;;;;20.05;10.6;;;;;;;-0.3;91.43164;94791.37;;;;
2021/01/07 01:06:44;;;;;;;20.05;10.6;;;;;;;-0.3;91.43164;94791.37;;;;
2021/01/07 01:07:45;;;;;;;20.05;10.6;;;;;;;-0.3;91.43164;94791.37;;;;
2021/01/07 01:08:46;;;;;;;20.05;10.6;;;;;;;-0.3;91.43164;94791.37;;;;
2021/01/07 01:09:46;;;;;;;20.05;10.6;;;;;;;-0.3;91.43164;94791.37;;;;
2021/01/07 01:10:47;;;;;;;20.05;10.6;;;;;;;-0.3;91.43164;94791.37;;;;
2021/01/07 01:11:47;;;;;;;20.05;10.6;;;;;;;-0.3;91.43164;94791.37;;;;
2021/01/07 01:12:48;;;;;;;18.45;10.45;;;;;;;-0.25;91.4209;94799.7;;;;
2021/01/07 01:13:49;;;;;;;18.45;10.45;;;;;;;-0.25;91.4209;94799.7;;;;
2021/01/07 01:14:50;;;;;;;18.45;10.45;;;;;;;-0.25;91.4209;94799.7;;;;
2021/01/07 01:15:50;;;;;;;18.45;10.45;;;;;;;-0.25;91.4209;94799.7;;;;
2021/01/07 01:16:51;;;;;;;18.45;10.45;;;;;;;-0.25;91.4209;94799.7;;;;
2021/01/07 01:17:53;;;;;;;18.45;10.45;;;;;;;-0.25;91.4209;94799.7;;;;
2021/01/07 01:18:54;;;;;;;18.45;10.45;;;;;;;-0.25;91.4209;94799.7;;;;
2021/01/07 01:19:54;;;;;;;18.45;10.45;;;;;;;-0.25;91.4209;94799.7;;;;
2021/01/07 01:20:55;;;;;;;18.45;10.45;;;;;;;-0.25;91.4209;94799.7;;;;
2021/01/07 01:21:55;;;;;;;18.45;10.45;;;;;;;-0.25;91.4209;94799.7;;;;
2021/01/07 01:22:56;;;;;;;18.95;10.6;;;;;;;-0.28;91.53906;94803.96;;;;
2021/01/07 01:23:56;;;;;;;18.95;10.6;;;;;;;-0.28;91.53906;94803.96;;;;
2021/01/07 01:24:57;;;;;;;18.95;10.6;;;;;;;-0.28;91.53906;94803.96;;;;
2021/01/07 01:25:59;;;;;;;18.95;10.6;;;;;;;-0.28;91.53906;94803.96;;;;
2021/01/07 01:26:59;;;;;;;18.95;10.6;;;;;;;-0.28;91.53906;94803.96;;;;
2021/01/07 01:28:00;;;;;;;18.95;10.6;;;;;;;-0.28;91.53906;94803.96;;;;
2021/01/07 01:29:01;;;;;;;18.95;10.6;;;;;;;-0.28;91.53906;94803.96;;;;
2021/01/07 01:30:02;;;;;;;18.95;10.6;;;;;;;-0.28;91.53906;94803.96;;;;
2021/01/07 01:31:05;;;;;;;18.95;10.6;;;;;;;-0.28;91.53906;94803.96;;;;
2021/01/07 01:32:06;;;;;;;18.95;10.6;;;;;;;-0.28;91.53906;94803.96;;;;
2021/01/07 01:33:06;;;;;;;18.95;10.6;;;;;;;-0.28;91.53906;94803.96;;;;
2021/01/07 01:34:07;;;;;;;21.45;11.25;;;;;;;-0.28;91.6748;94810.66;;;;
2021/01/07 01:35:08;;;;;;;21.45;11.25;;;;;;;-0.28;91.6748;94810.66;;;;
2021/01/07 01:36:10;;;;;;;21.45;11.25;;;;;;;-0.28;91.6748;94810.66;;;;
2021/01/07 01:37:10;;;;;;;21.45;11.25;;;;;;;-0.28;91.6748;94810.66;;;;
2021/01/07 01:38:11;;;;;;;21.45;11.25;;;;;;;-0.28;91.6748;94810.66;;;;
2021/01/07 01:39:11;;;;;;;21.45;11.25;;;;;;;-0.28;91.6748;94810.66;;;;
2021/01/07 01:40:14;;;;;;;21.45;11.25;;;;;;;-0.28;91.6748;94810.66;;;;
2021/01/07 01:41:15;;;;;;;21.45;11.25;;;;;;;-0.28;91.6748;94810.66;;;;
2021/01/07 01:42:15;;;;;;;21.45;11.25;;;;;;;-0.28;91.6748;94810.66;;;;
2021/01/07 01:43:22;;;;;;;21.45;11.25;;;;;;;-0.28;91.6748;94810.66;;;;
2021/01/07 01:44:23;;;;;;;19.9;11.45;;;;;;;-0.26;91.99219;94812.13;;;;
2021/01/07 01:45:23;;;;;;;19.9;11.45;;;;;;;-0.26;91.99219;94812.13;;;;
2021/01/07 01:46:24;;;;;;;19.9;11.45;;;;;;;-0.26;91.99219;94812.13;;;;
2021/01/07 01:47:24;;;;;;;19.9;11.45;;;;;;;-0.26;91.99219;94812.13;;;;
2021/01/07 01:48:25;;;;;;;19.9;11.45;;;;;;;-0.26;91.99219;94812.13;;;;
2021/01/07 01:49:26;;;;;;;19.9;11.45;;;;;;;-0.26;91.99219;94812.13;;;;
2021/01/07 01:50:27;;;;;;;19.9;11.45;;;;;;;-0.26;91.99219;94812.13;;;;
2021/01/07 01:51:28;;;;;;;19.9;11.45;;;;;;;-0.26;91.99219;94812.13;;;;
2021/01/07 01:52:29;;;;;;;19.9;11.45;;;;;;;-0.26;91.99219;94812.13;;;;
2021/01/07 01:53:31;;;;;;;19.9;11.45;;;;;;;-0.26;91.99219;94812.13;;;;
2021/01/07 01:54:31;;;;;;;19.9;11.45;;;;;;;-0.26;91.99219;94812.13;;;;
2021/01/07 01:55:32;;;;;;;22.35;11.25;;;;;;;-0.24;91.93359;94816.76;;;;
2021/01/07 01:56:33;;;;;;;22.35;11.25;;;;;;;-0.24;91.93359;94816.76;;;;
2021/01/07 01:57:34;;;;;;;22.35;11.25;;;;;;;-0.24;91.93359;94816.76;;;;
2021/01/07 01:58:36;;;;;;;22.35;11.25;;;;;;;-0.24;91.93359;94816.76;;;;
2021/01/07 01:59:38;;;;;;;22.35;11.25;;;;;;;-0.24;91.93359;94816.76;;;;
2021/01/07 02:00:39;;;;;;;22.35;11.25;;;;;;;-0.24;91.93359;94816.76;;;;
2021/01/07 02:01:39;;;;;;;22.35;11.25;;;;;;;-0.24;91.93359;94816.76;;;;
2021/01/07 02:02:40;;;;;;;22.35;11.25;;;;;;;-0.24;91.93359;94816.76;;;;
2021/01/07 02:03:41;;;;;;;22.35;11.25;;;;;;;-0.24;91.93359;94816.76;;;;
2021/01/07 02:04:41;;;;;;;22.35;11.25;;;;;;;-0.24;91.93359;94816.76;;;;
2021/01/07 02:05:42;;;;;;;23.5;11.85;;;;;;;-0.23;91.9873;94814.83;;;;
2021/01/07 02:06:43;;;;;;;23.5;11.85;;;;;;;-0.23;91.9873;94814.83;;;;
2021/01/07 02:07:45;;;;;;;23.5;11.85;;;;;;;-0.23;91.9873;94814.83;;;;
2021/01/07 02:08:46;;;;;;;23.5;11.85;;;;;;;-0.23;91.9873;94814.83;;;;
2021/01/07 02:09:48;;;;;;;23.5;11.85;;;;;;;-0.23;91.9873;94814.83;;;;
2021/01/07 02:10:49;;;;;;;23.5;11.85;;;;;;;-0.23;91.9873;94814.83;;;;
2021/01/07 02:11:51;;;;;;;23.5;11.85;;;;;;;-0.23;91.9873;94814.83;;;;
2021/01/07 02:12:52;;;;;;;23.5;11.85;;;;;;;-0.23;91.9873;94814.83;;;;
2021/01/07 02:13:52;;;;;;;23.5;11.85;;;;;;;-0.23;91.9873;94814.83;;;;
2021/01/07 02:14:53;;;;;;;23.5;11.85;;;;;;;-0.23;91.9873;94814.83;;;;
2021/01/07 02:15:55;;;;;;;23.5;11.85;;;;;;;-0.23;91.9873;94814.83;;;;
2021/01/07 02:16:55;;;;;;;19.4;11.15;;;;;;;-0.15;92.15137;94813.44;;;;
2021/01/07 02:17:56;;;;;;;19.4;11.15;;;;;;;-0.15;92.15137;94813.44;;;;
2021/01/07 02:18:57;;;;;;;19.4;11.15;;;;;;;-0.15;92.15137;94813.44;;;;
2021/01/07 02:19:57;;;;;;;19.4;11.15;;;;;;;-0.15;92.15137;94813.44;;;;
2021/01/07 02:20:58;;;;;;;19.4;11.15;;;;;;;-0.15;92.15137;94813.44;;;;
2021/01/07 02:22:00;;;;;;;19.4;11.15;;;;;;;-0.15;92.15137;94813.44;;;;
2021/01/07 02:23:00;;;;;;;19.4;11.15;;;;;;;-0.15;92.15137;94813.44;;;;
2021/01/07 02:24:01;;;;;;;19.4;11.15;;;;;;;-0.15;92.15137;94813.44;;;;
2021/01/07 02:25:02;;;;;;;19.4;11.15;;;;;;;-0.15;92.15137;94813.44;;;;
2021/01/07 02:26:03;;;;;;;19.4;11.15;;;;;;;-0.15;92.15137;94813.44;;;;
2021/01/07 02:27:03;;;;;;;21.65;12;;;;;;;-0.1;91.97461;94807.06;;;;
2021/01/07 02:28:06;;;;;;;21.65;12;;;;;;;-0.1;91.97461;94807.06;;;;
2021/01/07 02:29:08;;;;;;;21.65;12;;;;;;;-0.1;91.97461;94807.06;;;;
2021/01/07 02:30:08;;;;;;;21.65;12;;;;;;;-0.1;91.97461;94807.06;;;;
2021/01/07 02:31:09;;;;;;;21.65;12;;;;;;;-0.1;91.97461;94807.06;;;;
2021/01/07 02:32:10;;;;;;;21.65;12;;;;;;;-0.1;91.97461;94807.06;;;;
2021/01/07 02:33:10;;;;;;;21.65;12;;;;;;;-0.1;91.97461;94807.06;;;;
2021/01/07 02:34:11;;;;;;;21.65;12;;;;;;;-0.1;91.97461;94807.06;;;;
2021/01/07 02:35:11;;;;;;;21.65;12;;;;;;;-0.1;91.97461;94807.06;;;;
2021/01/07 02:36:12;;;;;;;21.65;12;;;;;;;-0.1;91.97461;94807.06;;;;
2021/01/07 02:37:13;;;;;;;21.65;12;;;;;;;-0.1;91.97461;94807.06;;;;
2021/01/07 02:38:14;;;;;;;20.75;10.7;;;;;;;-0.07;91.95801;94808.12;;;;
2021/01/07 02:39:14;;;;;;;20.75;10.7;;;;;;;-0.07;91.95801;94808.12;;;;
2021/01/07 02:40:15;;;;;;;20.75;10.7;;;;;;;-0.07;91.95801;94808.12;;;;
2021/01/07 02:41:15;;;;;;;20.75;10.7;;;;;;;-0.07;91.95801;94808.12;;;;
2021/01/07 02:42:16;;;;;;;20.75;10.7;;;;;;;-0.07;91.95801;94808.12;;;;
2021/01/07 02:43:16;;;;;;;20.75;10.7;;;;;;;-0.07;91.95801;94808.12;;;;
2021/01/07 02:44:17;;;;;;;20.75;10.7;;;;;;;-0.07;91.95801;94808.12;;;;
2021/01/07 02:45:17;;;;;;;20.75;10.7;;;;;;;-0.07;91.95801;94808.12;;;;
2021/01/07 02:46:18;;;;;;;20.75;10.7;;;;;;;-0.07;91.95801;94808.12;;;;
2021/01/07 02:47:19;;;;;;;20.75;10.7;;;;;;;-0.07;91.95801;94808.12;;;;
2021/01/07 02:48:19;;;;;;;21.05;11.4;;;;;;;-0.06;91.99316;94815.9;;;;
2021/01/07 02:49:20;;;;;;;21.05;11.4;;;;;;;-0.06;91.99316;94815.9;;;;
2021/01/07 02:50:20;;;;;;;21.05;11.4;;;;;;;-0.06;91.99316;94815.9;;;;
2021/01/07 02:51:21;;;;;;;21.05;11.4;;;;;;;-0.06;91.99316;94815.9;;;;
2021/01/07 02:52:21;;;;;;;21.05;11.4;;;;;;;-0.06;91.99316;94815.9;;;;
2021/01/07 02:53:22;;;;;;;21.05;11.4;;;;;;;-0.06;91.99316;94815.9;;;;
2021/01/07 02:54:22;;;;;;;21.05;11.4;;;;;;;-0.06;91.99316;94815.9;;;;
2021/01/07 02:55:23;;;;;;;21.05;11.4;;;;;;;-0.06;91.99316;94815.9;;;;
2021/01/07 02:56:23;;;;;;;21.05;11.4;;;;;;;-0.06;91.99316;94815.9;;;;
2021/01/07 02:57:24;;;;;;;21.05;11.4;;;;;;;-0.06;91.99316;94815.9;;;;
2021/01/07 02:58:24;;;;;;;21.05;11.4;;;;;;;-0.06;91.99316;94815.9;;;;
2021/01/07 02:59:25;;;;;;;20.7;10.8;;;;;;;-0.06;91.94141;94804.38;;;;
2021/01/07 03:00:25;;;;;;;20.7;10.8;;;;;;;-0.06;91.94141;94804.38;;;;
2021/01/07 03:01:26;;;;;;;20.7;10.8;;;;;;;-0.06;91.94141;94804.38;;;;
2021/01/07 03:02:26;;;;;;;20.7;10.8;;;;;;;-0.06;91.94141;94804.38;;;;
2021/01/07 03:03:27;;;;;;;20.7;10.8;;;;;;;-0.06;91.94141;94804.38;;;;
2021/01/07 03:04:27;;;;;;;20.7;10.8;;;;;;;-0.06;91.94141;94804.38;;;;
2021/01/07 03:05:28;;;;;;;20.7;10.8;;;;;;;-0.06;91.94141;94804.38;;;;
2021/01/07 03:06:28;;;;;;;20.7;10.8;;;;;;;-0.06;91.94141;94804.38;;;;
2021/01/07 03:07:29;;;;;;;20.7;10.8;;;;;;;-0.06;91.94141;94804.38;;;;
2021/01/07 03:08:29;;;;;;;20.7;10.8;;;;;;;-0.06;91.94141;94804.38;;;;
2021/01/07 03:09:30;;;;;;;20.7;10.8;;;;;;;-0.06;91.94141;94804.38;;;;
2021/01/07 03:10:30;;;;;;;18.9;10.4;;;;;;;-0.05;92.07813;94799.38;;;;
2021/01/07 03:11:31;;;;;;;18.9;10.4;;;;;;;-0.05;92.07813;94799.38;;;;
2021/01/07 03:12:33;;;;;;;18.9;10.4;;;;;;;-0.05;92.07813;94799.38;;;;
2021/01/07 03:13:34;;;;;;;18.9;10.4;;;;;;;-0.05;92.07813;94799.38;;;;
2021/01/07 03:14:35;;;;;;;18.9;10.4;;;;;;;-0.05;92.07813;94799.38;;;;
2021/01/07 03:15:35;;;;;;;18.9;10.4;;;;;;;-0.05;92.07813;94799.38;;;;
2021/01/07 03:16:35;;;;;;;18.9;10.4;;;;;;;-0.05;92.07813;94799.38;;;;
2021/01/07 03:17:36;;;;;;;18.9;10.4;;;;;;;-0.05;92.07813;94799.38;;;;
2021/01/07 03:18:36;;;;;;;18.9;10.4;;;;;;;-0.05;92.07813;94799.38;;;;
2021/01/07 03:19:37;;;;;;;18.9;10.4;;;;;;;-0.05;92.07813;94799.38;;;;
2021/01/07 03:20:38;;;;;;;19.2;10.15;;;;;;;-0.04;92.05762;94797.14;;;;
2021/01/07 03:21:41;;;;;;;19.2;10.15;;;;;;;-0.04;92.05762;94797.14;;;;
2021/01/07 03:22:42;;;;;;;19.2;10.15;;;;;;;-0.04;92.05762;94797.14;;;;
2021/01/07 03:23:43;;;;;;;19.2;10.15;;;;;;;-0.04;92.05762;94797.14;;;;
2021/01/07 03:24:43;;;;;;;19.2;10.15;;;;;;;-0.04;92.05762;94797.14;;;;
2021/01/07 03:25:44;;;;;;;19.2;10.15;;;;;;;-0.04;92.05762;94797.14;;;;
2021/01/07 03:26:44;;;;;;;19.2;10.15;;;;;;;-0.04;92.05762;94797.14;;;;
2021/01/07 03:27:44;;;;;;;19.2;10.15;;;;;;;-0.04;92.05762;94797.14;;;;
2021/01/07 03:28:45;;;;;;;19.2;10.15;;;;;;;-0.04;92.05762;94797.14;;;;
2021/01/07 03:29:46;;;;;;;19.2;10.15;;;;;;;-0.04;92.05762;94797.14;;;;
2021/01/07 03:30:46;;;;;;;19.2;10.15;;;;;;;-0.04;92.05762;94797.14;;;;
2021/01/07 03:31:46;;;;;;;18.9;10.55;;;;;;;-0.07;92.02148;94798.74;;;;
2021/01/07 03:32:47;;;;;;;18.9;10.55;;;;;;;-0.07;92.02148;94798.74;;;;
2021/01/07 03:33:47;;;;;;;18.9;10.55;;;;;;;-0.07;92.02148;94798.74;;;;
2021/01/07 03:34:48;;;;;;;18.9;10.55;;;;;;;-0.07;92.02148;94798.74;;;;
2021/01/07 03:35:48;;;;;;;18.9;10.55;;;;;;;-0.07;92.02148;94798.74;;;;
2021/01/07 03:36:49;;;;;;;18.9;10.55;;;;;;;-0.07;92.02148;94798.74;;;;
2021/01/07 03:37:49;;;;;;;18.9;10.55;;;;;;;-0.07;92.02148;94798.74;;;;
2021/01/07 03:38:50;;;;;;;18.9;10.55;;;;;;;-0.07;92.02148;94798.74;;;;
2021/01/07 03:39:50;;;;;;;18.9;10.55;;;;;;;-0.07;92.02148;94798.74;;;;
2021/01/07 03:40:51;;;;;;;18.9;10.55;;;;;;;-0.07;92.02148;94798.74;;;;
2021/01/07 03:41:52;;;;;;;17.1;9.300001;;;;;;;-0.09;92.06738;94808.81;;;;
2021/01/07 03:42:52;;;;;;;17.1;9.300001;;;;;;;-0.09;92.06738;94808.81;;;;
2021/01/07 03:43:53;;;;;;;17.1;9.300001;;;;;;;-0.09;92.06738;94808.81;;;;
2021/01/07 03:44:53;;;;;;;17.1;9.300001;;;;;;;-0.09;92.06738;94808.81;;;;
2021/01/07 03:45:54;;;;;;;17.1;9.300001;;;;;;;-0.09;92.06738;94808.81;;;;
2021/01/07 03:46:54;;;;;;;17.1;9.300001;;;;;;;-0.09;92.06738;94808.81;;;;
2021/01/07 03:47:55;;;;;;;17.1;9.300001;;;;;;;-0.09;92.06738;94808.81;;;;
2021/01/07 03:48:55;;;;;;;17.1;9.300001;;;;;;;-0.09;92.06738;94808.81;;;;
2021/01/07 03:49:56;;;;;;;17.1;9.300001;;;;;;;-0.09;92.06738;94808.81;;;;
2021/01/07 03:50:56;;;;;;;17.1;9.300001;;;;;;;-0.09;92.06738;94808.81;;;;
2021/01/07 03:51:57;;;;;;;17.1;9.300001;;;;;;;-0.09;92.06738;94808.81;;;;
2021/01/07 03:52:57;;;;;;;18.4;9.699999;;;;;;;-0.17;92.1123;94808.89;;;;
2021/01/07 03:53:58;;;;;;;18.4;9.699999;;;;;;;-0.17;92.1123;94808.89;;;;
2021/01/07 03:54:58;;;;;;;18.4;9.699999;;;;;;;-0.17;92.1123;94808.89;;;;
2021/01/07 03:55:59;;;;;;;18.4;9.699999;;;;;;;-0.17;92.1123;94808.89;;;;
2021/01/07 03:57:00;;;;;;;18.4;9.699999;;;;;;;-0.17;92.1123;94808.89;;;;
2021/01/07 03:58:00;;;;;;;18.4;9.699999;;;;;;;-0.17;92.1123;94808.89;;;;
2021/01/07 03:59:01;;;;;;;18.4;9.699999;;;;;;;-0.17;92.1123;94808.89;;;;
2021/01/07 04:00:01;;;;;;;18.4;9.699999;;;;;;;-0.17;92.1123;94808.89;;;;
2021/01/07 04:01:05;;;;;;;18.4;9.699999;;;;;;;-0.17;92.1123;94808.89;;;;
2021/01/07 04:02:06;;;;;;;18.4;9.699999;;;;;;;-0.17;92.1123;94808.89;;;;
2021/01/07 04:03:07;;;;;;;17.25;10.05;;;;;;;-0.23;92.29883;94816.16;;;;
2021/01/07 04:04:07;;;;;;;17.25;10.05;;;;;;;-0.23;92.29883;94816.16;;;;
2021/01/07 04:05:08;;;;;;;17.25;10.05;;;;;;;-0.23;92.29883;94816.16;;;;
2021/01/07 04:06:09;;;;;;;17.25;10.05;;;;;;;-0.23;92.29883;94816.16;;;;
2021/01/07 04:07:10;;;;;;;17.25;10.05;;;;;;;-0.23;92.29883;94816.16;;;;
2021/01/07 04:08:11;;;;;;;17.25;10.05;;;;;;;-0.23;92.29883;94816.16;;;;
2021/01/07 04:09:11;;;;;;;17.25;10.05;;;;;;;-0.23;92.29883;94816.16;;;;
2021/01/07 04:10:11;;;;;;;17.25;10.05;;;;;;;-0.23;92.29883;94816.16;;;;
2021/01/07 04:11:12;;;;;;;17.25;10.05;;;;;;;-0.23;92.29883;94816.16;;;;
2021/01/07 04:12:13;;;;;;;17.25;10.05;;;;;;;-0.23;92.29883;94816.16;;;;
2021/01/07 04:13:13;;;;;;;17.25;10.05;;;;;;;-0.23;92.29883;94816.16;;;;
2021/01/07 04:14:14;;;;;;;18.95;10.65;;;;;;;-0.26;92.44824;94807.25;;;;
2021/01/07 04:15:14;;;;;;;18.95;10.65;;;;;;;-0.26;92.44824;94807.25;;;;
2021/01/07 04:16:15;;;;;;;18.95;10.65;;;;;;;-0.26;92.44824;94807.25;;;;
2021/01/07 04:17:15;;;;;;;18.95;10.65;;;;;;;-0.26;92.44824;94807.25;;;;
2021/01/07 04:18:16;;;;;;;18.95;10.65;;;;;;;-0.26;92.44824;94807.25;;;;
2021/01/07 04:19:16;;;;;;;18.95;10.65;;;;;;;-0.26;92.44824;94807.25;;;;
2021/01/07 04:20:17;;;;;;;18.95;10.65;;;;;;;-0.26;92.44824;94807.25;;;;
2021/01/07 04:21:18;;;;;;;18.95;10.65;;;;;;;-0.26;92.44824;94807.25;;;;
2021/01/07 04:22:19;;;;;;;18.95;10.65;;;;;;;-0.26;92.44824;94807.25;;;;
2021/01/07 04:23:19;;;;;;;18.95;10.65;;;;;;;-0.26;92.44824;94807.25;;;;
2021/01/07 04:24:20;;;;;;;18;10.45;;;;;;;-0.25;92.55176;94815.62;;;;
2021/01/07 04:25:20;;;;;;;18;10.45;;;;;;;-0.25;92.55176;94815.62;;;;
2021/01/07 04:26:21;;;;;;;18;10.45;;;;;;;-0.25;92.55176;94815.62;;;;
2021/01/07 04:27:23;;;;;;;18;10.45;;;;;;;-0.25;92.55176;94815.62;;;;
2021/01/07 04:28:23;;;;;;;18;10.45;;;;;;;-0.25;92.55176;94815.62;;;;
2021/01/07 04:29:24;;;;;;;18;10.45;;;;;;;-0.25;92.55176;94815.62;;;;
2021/01/07 04:30:24;;;;;;;18;10.45;;;;;;;-0.25;92.55176;94815.62;;;;
2021/01/07 04:31:25;;;;;;;18;10.45;;;;;;;-0.25;92.55176;94815.62;;;;
2021/01/07 04:32:25;;;;;;;18;10.45;;;;;;;-0.25;92.55176;94815.62;;;;
2021/01/07 04:33:26;;;;;;;18;10.45;;;;;;;-0.25;92.55176;94815.62;;;;
2021/01/07 04:34:26;;;;;;;18;10.45;;;;;;;-0.25;92.55176;94815.62;;;;
2021/01/07 04:35:27;;;;;;;18.55;10.35;;;;;;;-0.24;92.5957;94818.58;;;;
2021/01/07 04:36:27;;;;;;;18.55;10.35;;;;;;;-0.24;92.5957;94818.58;;;;
2021/01/07 04:37:28;;;;;;;18.55;10.35;;;;;;;-0.24;92.5957;94818.58;;;;
2021/01/07 04:38:28;;;;;;;18.55;10.35;;;;;;;-0.24;92.5957;94818.58;;;;
2021/01/07 04:39:29;;;;;;;18.55;10.35;;;;;;;-0.24;92.5957;94818.58;;;;
2021/01/07 04:40:29;;;;;;;18.55;10.35;;;;;;;-0.24;92.5957;94818.58;;;;
2021/01/07 04:41:30;;;;;;;18.55;10.35;;;;;;;-0.24;92.5957;94818.58;;;;
2021/01/07 04:42:31;;;;;;;18.55;10.35;;;;;;;-0.24;92.5957;94818.58;;;;
2021/01/07 04:43:31;;;;;;;18.55;10.35;;;;;;;-0.24;92.5957;94818.58;;;;
2021/01/07 04:44:32;;;;;;;18.55;10.35;;;;;;;-0.24;92.5957;94818.58;;;;
2021/01/07 04:45:33;;;;;;;18.55;10.35;;;;;;;-0.24;92.5957;94818.58;;;;
2021/01/07 04:46:34;;;;;;;20.3;11.25;;;;;;;-0.25;92.64551;94819.59;;;;
2021/01/07 04:47:34;;;;;;;20.3;11.25;;;;;;;-0.25;92.64551;94819.59;;;;
2021/01/07 04:48:36;;;;;;;20.3;11.25;;;;;;;-0.25;92.64551;94819.59;;;;
2021/01/07 04:49:37;;;;;;;20.3;11.25;;;;;;;-0.25;92.64551;94819.59;;;;
2021/01/07 04:50:38;;;;;;;20.3;11.25;;;;;;;-0.25;92.64551;94819.59;;;;
2021/01/07 04:51:39;;;;;;;20.3;11.25;;;;;;;-0.25;92.64551;94819.59;;;;
2021/01/07 04:52:40;;;;;;;20.3;11.25;;;;;;;-0.25;92.64551;94819.59;;;;
2021/01/07 04:53:40;;;;;;;20.3;11.25;;;;;;;-0.25;92.64551;94819.59;;;;
2021/01/07 04:54:41;;;;;;;20.3;11.25;;;;;;;-0.25;92.64551;94819.59;;;;
2021/01/07 04:55:42;;;;;;;20.3;11.25;;;;;;;-0.25;92.64551;94819.59;;;;
2021/01/07 04:56:42;;;;;;;20.85;10.95;;;;;;;-0.3;92.54199;94827.17;;;;
2021/01/07 04:57:43;;;;;;;20.85;10.95;;;;;;;-0.3;92.54199;94827.17;;;;
2021/01/07 04:58:43;;;;;;;20.85;10.95;;;;;;;-0.3;92.54199;94827.17;;;;
2021/01/07 04:59:44;;;;;;;20.85;10.95;;;;;;;-0.3;92.54199;94827.17;;;;
2021/01/07 05:00:44;;;;;;;20.85;10.95;;;;;;;-0.3;92.54199;94827.17;;;;
2021/01/07 05:01:45;;;;;;;20.85;10.95;;;;;;;-0.3;92.54199;94827.17;;;;
2021/01/07 05:02:47;;;;;;;20.85;10.95;;;;;;;-0.3;92.54199;94827.17;;;;
2021/01/07 05:03:49;;;;;;;20.85;10.95;;;;;;;-0.3;92.54199;94827.17;;;;
2021/01/07 05:04:51;;;;;;;20.85;10.95;;;;;;;-0.3;92.54199;94827.17;;;;
2021/01/07 05:05:53;;;;;;;20.85;10.95;;;;;;;-0.3;92.54199;94827.17;;;;
2021/01/07 05:06:54;;;;;;;20.85;10.95;;;;;;;-0.3;92.54199;94827.17;;;;
2021/01/07 05:07:54;;;;;;;20.7;11.05;;;;;;;-0.31;92.69727;94822.89;;;;
2021/01/07 05:08:55;;;;;;;20.7;11.05;;;;;;;-0.31;92.69727;94822.89;;;;
2021/01/07 05:10:00;;;;;;;20.7;11.05;;;;;;;-0.31;92.69727;94822.89;;;;
2021/01/07 05:11:03;;;;;;;20.7;11.05;;;;;;;-0.31;92.69727;94822.89;;;;
2021/01/07 05:12:04;;;;;;;20.7;11.05;;;;;;;-0.31;92.69727;94822.89;;;;
2021/01/07 05:13:05;;;;;;;20.7;11.05;;;;;;;-0.31;92.69727;94822.89;;;;
2021/01/07 05:14:08;;;;;;;20.7;11.05;;;;;;;-0.31;92.69727;94822.89;;;;
2021/01/07 05:15:10;;;;;;;20.7;11.05;;;;;;;-0.31;92.69727;94822.89;;;;
2021/01/07 05:16:11;;;;;;;20.7;11.05;;;;;;;-0.31;92.69727;94822.89;;;;
2021/01/07 05:17:20;;;;;;;20.7;11.05;;;;;;;-0.31;92.69727;94822.89;;;;
2021/01/07 05:18:21;;;;;;;21.65;11.9;;;;;;;-0.32;92.62109;94832.74;;;;
2021/01/07 05:19:22;;;;;;;21.65;11.9;;;;;;;-0.32;92.62109;94832.74;;;;
2021/01/07 05:20:23;;;;;;;21.65;11.9;;;;;;;-0.32;92.62109;94832.74;;;;
2021/01/07 05:21:24;;;;;;;21.65;11.9;;;;;;;-0.32;92.62109;94832.74;;;;
2021/01/07 05:22:27;;;;;;;21.65;11.9;;;;;;;-0.32;92.62109;94832.74;;;;
2021/01/07 05:23:34;;;;;;;21.65;11.9;;;;;;;-0.32;92.62109;94832.74;;;;
2021/01/07 05:24:35;;;;;;;21.65;11.9;;;;;;;-0.32;92.62109;94832.74;;;;
2021/01/07 05:25:37;;;;;;;21.65;11.9;;;;;;;-0.32;92.62109;94832.74;;;;
2021/01/07 05:26:42;;;;;;;21.65;11.9;;;;;;;-0.32;92.62109;94832.74;;;;
2021/01/07 05:27:44;;;;;;;21.65;11.9;;;;;;;-0.32;92.62109;94832.74;;;;
2021/01/07 05:28:44;;;;;;;19.2;10.8;;;;;;;-0.32;92.40332;94824.78;;;;
2021/01/07 05:29:46;;;;;;;19.2;10.8;;;;;;;-0.32;92.40332;94824.78;;;;
2021/01/07 05:30:47;;;;;;;19.2;10.8;;;;;;;-0.32;92.40332;94824.78;;;;
2021/01/07 05:31:47;;;;;;;19.2;10.8;;;;;;;-0.32;92.40332;94824.78;;;;
2021/01/07 05:32:50;;;;;;;19.2;10.8;;;;;;;-0.32;92.40332;94824.78;;;;
2021/01/07 05:33:51;;;;;;;19.2;10.8;;;;;;;-0.32;92.40332;94824.78;;;;
2021/01/07 05:34:54;;;;;;;19.2;10.8;;;;;;;-0.32;92.40332;94824.78;;;;
2021/01/07 05:35:55;;;;;;;19.2;10.8;;;;;;;-0.32;92.40332;94824.78;;;;
2021/01/07 05:36:55;;;;;;;19.2;10.8;;;;;;;-0.32;92.40332;94824.78;;;;
2021/01/07 05:37:57;;;;;;;19.2;10.8;;;;;;;-0.32;92.40332;94824.78;;;;
2021/01/07 05:38:59;;;;;;;19.2;10.8;;;;;;;-0.32;92.40332;94824.78;;;;
2021/01/07 05:40:04;;;;;;;22.15;11.4;;;;;;;-0.42;92.05078;94827.29;;;;
2021/01/07 05:41:07;;;;;;;22.15;11.4;;;;;;;-0.42;92.05078;94827.29;;;;